Time;durP1;ratioP1;P1;durP2;ratioP2;P2;SDS_P1;SDS_P2;PMS_P1;PMS_P2;Temp;Humidity;BMP_temperature;BMP_pressure;BME280_temperature;BME280_humidity;BME280_pressure;Samples;Min_cycle;Max_cycle;Signal;HPM_P1;HPM_P2
2021/05/20 00:00:53;;;;;;;5.23;3.37;;;;;;;-144.99;nan;52419.56;4988753;28;20211;-64
2021/05/20 00:03:20;;;;;;;8.17;2.90;;;;;;;-144.99;nan;52338.03;4994427;28;20253;-63
2021/05/20 00:05:49;;;;;;;10.77;6.10;;;;;;;-144.99;nan;52407.31;4991901;28;20242;-64
2021/05/20 00:08:15;;;;;;;4.77;2.77;;;;;;;-144.99;nan;52374.72;4984788;28;20224;-63
2021/05/20 00:10:41;;;;;;;4.13;2.70;;;;;;;-144.99;nan;52374.72;4987636;28;20695;-63
2021/05/20 00:13:07;;;;;;;5.20;2.90;;;;;;;-144.99;nan;52362.50;4987279;28;20243;-64
2021/05/20 00:15:36;;;;;;;4.57;2.80;;;;;;;-144.99;nan;52391.03;4993156;28;20211;-65
2021/05/20 00:18:02;;;;;;;3.43;2.60;;;;;;;-144.99;nan;52329.88;4986093;28;20642;-64
2021/05/20 00:20:31;;;;;;;2.63;2.17;;;;;;;-144.99;nan;52350.25;4988775;28;20212;-63
2021/05/20 00:22:57;;;;;;;8.27;3.03;;;;;;;-144.99;nan;52380.84;4988067;28;20206;-65
2021/05/20 00:25:24;;;;;;;8.57;3.47;;;;;;;-144.99;nan;52366.56;4987998;28;20211;-63
2021/05/20 00:27:52;;;;;;;4.70;3.17;;;;;;;-144.99;nan;52380.84;4990801;28;20259;-65
2021/05/20 00:30:19;;;;;;;4.53;2.67;;;;;;;-144.99;nan;52382.88;4986397;28;20204;-65
2021/05/20 00:32:45;;;;;;;8.50;3.50;;;;;;;-144.99;nan;52378.78;4991947;28;20219;-64
2021/05/20 00:35:11;;;;;;;4.93;3.20;;;;;;;-144.99;nan;52388.97;4994038;28;20280;-66
2021/05/20 00:37:39;;;;;;;4.83;2.87;;;;;;;-144.99;nan;52370.63;4996096;28;20246;-64
2021/05/20 00:40:06;;;;;;;6.60;2.90;;;;;;;-144.99;nan;52360.44;4987740;28;20203;-65
2021/05/20 00:42:33;;;;;;;4.17;2.97;;;;;;;-144.99;nan;52342.09;4996041;28;20222;-64
2021/05/20 00:45:00;;;;;;;4.37;3.07;;;;;;;-144.99;nan;52419.56;4988848;28;20208;-63
2021/05/20 00:47:29;;;;;;;3.97;2.23;;;;;;;-144.99;nan;52329.88;4991096;28;20309;-64
2021/05/20 00:49:56;;;;;;;4.47;3.10;;;;;;;-144.99;nan;52362.50;4993255;28;20288;-66
2021/05/20 00:52:25;;;;;;;6.57;3.07;;;;;;;-144.99;nan;52395.09;4992010;28;20629;-65
2021/05/20 00:54:54;;;;;;;3.13;2.63;;;;;;;-144.99;nan;52368.59;4995548;28;20223;-64
2021/05/20 00:57:21;;;;;;;3.90;2.40;;;;;;;-144.99;nan;52384.91;4992825;28;20254;-64
2021/05/20 00:59:48;;;;;;;3.47;2.37;;;;;;;-144.99;nan;52342.09;4992708;28;20208;-67
2021/05/20 01:02:18;;;;;;;3.63;2.37;;;;;;;-144.99;nan;52346.19;4992313;28;20218;-65
2021/05/20 01:04:44;;;;;;;5.80;2.80;;;;;;;-144.99;nan;52366.56;4989526;28;20615;-61
2021/05/20 01:07:16;;;;;;;3.90;2.43;;;;;;;-144.99;nan;52380.84;4998988;28;20600;-62
2021/05/20 01:09:42;;;;;;;3.67;2.03;;;;;;;-144.99;nan;52399.19;4991780;28;20215;-61
2021/05/20 01:12:11;;;;;;;3.43;2.33;;;;;;;-144.99;nan;52354.34;4991794;28;20222;-61
2021/05/20 01:14:38;;;;;;;8.60;2.77;;;;;;;-144.99;nan;52374.72;4999799;28;20222;-61
2021/05/20 01:17:14;;;;;;;2.93;2.50;;;;;;;-144.99;nan;52376.75;4993651;28;20227;-61
2021/05/20 01:19:46;;;;;;;3.83;2.67;;;;;;;-144.99;nan;52366.56;4996096;28;20207;-60
2021/05/20 01:22:14;;;;;;;3.30;2.60;;;;;;;-144.99;nan;52370.63;4994283;28;20211;-64
2021/05/20 01:24:41;;;;;;;8.17;3.57;;;;;;;-144.99;nan;52346.19;4993637;28;20212;-64
2021/05/20 01:27:09;;;;;;;5.73;3.03;;;;;;;-144.99;nan;52350.25;4994635;28;20242;-63
2021/05/20 01:29:39;;;;;;;4.70;2.80;;;;;;;-144.99;nan;52395.09;4988824;28;20208;-63
2021/05/20 01:32:05;;;;;;;3.93;2.63;;;;;;;-144.99;nan;52358.41;4993058;28;20252;-63
2021/05/20 01:34:33;;;;;;;3.87;2.73;;;;;;;-144.99;nan;52372.69;4998352;28;20262;-63
2021/05/20 01:37:02;;;;;;;4.10;2.50;;;;;;;-144.99;nan;52346.19;4997386;28;21850;-63
2021/05/20 01:39:29;;;;;;;3.13;2.53;;;;;;;-144.99;nan;52407.31;4997005;28;20239;-62
2021/05/20 01:41:58;;;;;;;5.10;2.47;;;;;;;-144.99;nan;52376.75;4993252;28;20289;-62
2021/05/20 01:44:25;;;;;;;4.30;2.83;;;;;;;-144.99;nan;52407.31;4989550;28;20219;-62
2021/05/20 01:46:54;;;;;;;3.40;2.73;;;;;;;-144.99;nan;52358.41;4988536;28;20255;-64
2021/05/20 01:49:20;;;;;;;4.50;2.53;;;;;;;-144.99;nan;52380.84;4989262;28;20196;-62
2021/05/20 01:51:46;;;;;;;3.50;2.63;;;;;;;-144.99;nan;52407.31;4988620;28;20208;-61
2021/05/20 01:54:12;;;;;;;4.50;3.20;;;;;;;-144.99;nan;52382.88;4989481;28;20211;-62
2021/05/20 01:56:40;;;;;;;5.47;3.50;;;;;;;-144.99;nan;52333.94;4990641;28;20233;-63
2021/05/20 01:59:09;;;;;;;4.73;3.77;;;;;;;-144.99;nan;52391.03;4994403;28;20257;-62
2021/05/20 02:01:35;;;;;;;2.87;2.53;;;;;;;-144.99;nan;52391.03;4987452;28;20221;-63
2021/05/20 02:04:04;;;;;;;4.20;2.77;;;;;;;-144.99;nan;52354.34;4988094;28;20206;-63
2021/05/20 02:06:31;;;;;;;3.23;2.30;;;;;;;-144.99;nan;52370.63;4990754;28;20235;-64
2021/05/20 02:08:59;;;;;;;4.97;2.90;;;;;;;-144.99;nan;52370.63;4992280;28;20566;-63
2021/05/20 02:11:28;;;;;;;3.83;2.83;;;;;;;-144.99;nan;52391.03;4992301;28;20212;-62
2021/05/20 02:13:58;;;;;;;6.03;2.93;;;;;;;-144.99;nan;52358.41;4991843;28;20212;-63
2021/05/20 02:16:24;;;;;;;5.33;3.03;;;;;;;-144.99;nan;52374.72;4992647;28;20275;-62
2021/05/20 02:18:53;;;;;;;4.50;3.80;;;;;;;-144.99;nan;52374.72;4994960;28;20227;-65
2021/05/20 02:21:19;;;;;;;4.10;3.07;;;;;;;-144.99;nan;52366.56;4991383;28;20208;-64
2021/05/20 02:23:48;;;;;;;3.80;2.97;;;;;;;-144.99;nan;52301.34;4992476;28;20219;-64
2021/05/20 02:26:20;;;;;;;4.60;3.10;;;;;;;-144.99;nan;52378.78;4992582;28;20223;-63
2021/05/20 02:28:49;;;;;;;5.77;3.33;;;;;;;-144.99;nan;52386.94;4990270;28;20215;-62
2021/05/20 02:31:19;;;;;;;2.97;2.50;;;;;;;-144.99;nan;52366.56;4990844;28;20659;-62
2021/05/20 02:33:45;;;;;;;6.67;3.53;;;;;;;-144.99;nan;52411.41;4988244;28;20254;-63
2021/05/20 02:36:11;;;;;;;3.43;2.80;;;;;;;-144.99;nan;52366.56;4988046;28;20266;-64
2021/05/20 02:38:40;;;;;;;3.17;2.53;;;;;;;-144.99;nan;52362.50;4990335;28;20235;-69
2021/05/20 02:41:07;;;;;;;4.50;2.60;;;;;;;-144.99;nan;52391.03;4989445;28;20583;-69
2021/05/20 02:43:36;;;;;;;6.73;3.33;;;;;;;-144.99;nan;52386.94;4992722;28;20203;-68
2021/05/20 02:46:02;;;;;;;6.60;3.10;;;;;;;-144.99;nan;52386.94;4995756;28;20223;-69
2021/05/20 02:48:32;;;;;;;3.93;2.80;;;;;;;-144.99;nan;52366.56;4995710;28;20303;-68
2021/05/20 02:51:03;;;;;;;4.07;3.23;;;;;;;-144.99;nan;52407.31;4989430;28;20219;-68
2021/05/20 02:53:29;;;;;;;4.17;3.07;;;;;;;-144.99;nan;52378.78;4990828;28;20226;-68
2021/05/20 02:55:56;;;;;;;12.07;4.00;;;;;;;-144.99;nan;52362.50;4989725;28;20235;-69
2021/05/20 02:58:23;;;;;;;4.73;3.40;;;;;;;-144.99;nan;52382.88;4987436;28;20241;-70
2021/05/20 03:00:49;;;;;;;5.30;3.80;;;;;;;-144.99;nan;52358.41;4985015;28;20258;-69
2021/05/20 03:03:16;;;;;;;5.47;3.50;;;;;;;-144.99;nan;52360.44;4994360;28;20697;-68
2021/05/20 03:05:43;;;;;;;5.53;4.57;;;;;;;-144.99;nan;52370.63;4999945;28;20222;-70
2021/05/20 03:08:11;;;;;;;3.70;3.07;;;;;;;-144.99;nan;52366.56;4993478;28;20226;-68
2021/05/20 03:10:43;;;;;;;4.30;3.00;;;;;;;-144.99;nan;52358.41;4993488;28;20574;-68
2021/05/20 03:13:09;;;;;;;5.43;3.93;;;;;;;-144.99;nan;52374.72;5000170;28;20218;-68
2021/05/20 03:15:35;;;;;;;4.50;3.50;;;;;;;-144.99;nan;52423.63;4996284;28;20217;-69
2021/05/20 03:18:04;;;;;;;7.33;4.37;;;;;;;-144.99;nan;52366.56;4989634;28;20235;-69
2021/05/20 03:20:30;;;;;;;5.10;4.13;;;;;;;-144.99;nan;52374.72;4987875;28;20211;-69
2021/05/20 03:23:00;;;;;;;4.63;3.77;;;;;;;-144.99;nan;52374.72;4990102;28;20574;-68
2021/05/20 03:25:29;;;;;;;7.23;4.83;;;;;;;-144.99;nan;52403.25;4995864;28;20203;-70
2021/05/20 03:27:55;;;;;;;6.87;4.10;;;;;;;-144.99;nan;52362.50;4991931;28;20227;-68
2021/05/20 03:30:22;;;;;;;6.43;4.63;;;;;;;-144.99;nan;52380.84;4992713;28;20210;-68
2021/05/20 03:32:48;;;;;;;6.60;4.80;;;;;;;-144.99;nan;52362.50;4989112;28;20203;-70
2021/05/20 03:35:14;;;;;;;11.33;6.30;;;;;;;-144.99;nan;52346.19;4994444;28;20214;-68
2021/05/20 03:37:40;;;;;;;5.80;4.50;;;;;;;-144.99;nan;52374.72;4989334;28;20223;-69
2021/05/20 03:40:08;;;;;;;6.53;4.90;;;;;;;-144.99;nan;52358.41;4995567;28;20661;-70
2021/05/20 03:42:35;;;;;;;6.70;5.43;;;;;;;-144.99;nan;52356.38;4994730;28;20731;-69
2021/05/20 03:45:01;;;;;;;6.80;5.77;;;;;;;-144.99;nan;52354.34;4990318;28;20211;-70
2021/05/20 03:47:27;;;;;;;8.80;5.63;;;;;;;-144.99;nan;52376.75;4989209;28;20278;-70
2021/05/20 03:49:53;;;;;;;6.30;5.53;;;;;;;-144.99;nan;52399.19;4990804;28;20663;-61
2021/05/20 03:52:19;;;;;;;8.20;6.23;;;;;;;-144.99;nan;52374.72;4991346;28;20264;-61
2021/05/20 03:54:51;;;;;;;11.73;6.00;;;;;;;-144.99;nan;52366.56;4992772;28;20216;-61
2021/05/20 03:57:18;;;;;;;7.80;5.93;;;;;;;-144.99;nan;52376.75;4997806;28;20678;-60
2021/05/20 03:59:44;;;;;;;9.07;6.37;;;;;;;-144.99;nan;52395.09;4994023;28;20238;-59
2021/05/20 04:02:13;;;;;;;10.17;8.20;;;;;;;-144.99;nan;52382.88;4993602;28;20203;-60
2021/05/20 04:04:39;;;;;;;7.87;6.60;;;;;;;-144.99;nan;52325.81;4998592;28;20207;-61
2021/05/20 04:07:05;;;;;;;7.10;6.20;;;;;;;-144.99;nan;52403.25;4998707;28;20238;-60
2021/05/20 04:09:35;;;;;;;9.07;5.83;;;;;;;-144.99;nan;52362.50;4993399;28;20207;-59
2021/05/20 04:12:10;;;;;;;8.27;6.40;;;;;;;-144.99;nan;52352.28;4991354;28;20203;-60
2021/05/20 04:14:39;;;;;;;8.57;6.40;;;;;;;-144.99;nan;52382.88;4998906;28;20214;-60
2021/05/20 04:17:05;;;;;;;5.73;5.13;;;;;;;-144.99;nan;52395.09;4992625;28;20222;-60
2021/05/20 04:19:31;;;;;;;6.43;5.63;;;;;;;-144.99;nan;52395.09;4997895;28;20230;-60
2021/05/20 04:22:00;;;;;;;8.37;7.13;;;;;;;-144.99;nan;52362.50;5000235;28;20269;-59
2021/05/20 04:24:27;;;;;;;8.17;6.47;;;;;;;-144.99;nan;52366.56;4995927;28;20230;-58
2021/05/20 04:26:56;;;;;;;8.27;5.83;;;;;;;-144.99;nan;52327.84;5004262;28;20241;-60
2021/05/20 04:29:25;;;;;;;7.37;6.17;;;;;;;-144.99;nan;52395.09;4998886;28;20211;-62
2021/05/20 04:31:55;;;;;;;9.20;5.87;;;;;;;-144.99;nan;52346.19;4997042;28;20223;-64
2021/05/20 04:34:21;;;;;;;7.30;5.87;;;;;;;-144.99;nan;52366.56;5000217;28;20294;-64
2021/05/20 04:36:48;;;;;;;10.20;7.53;;;;;;;-144.99;nan;52382.88;4998474;28;20775;-72
2021/05/20 04:39:14;;;;;;;9.40;6.60;;;;;;;-144.99;nan;52374.72;5000093;28;20227;-72
2021/05/20 04:41:42;;;;;;;11.13;7.93;;;;;;;-144.99;nan;52378.78;5004184;28;20206;-72
2021/05/20 04:44:12;;;;;;;9.33;8.33;;;;;;;-144.99;nan;52362.50;4998901;28;20214;-72
2021/05/20 04:46:38;;;;;;;10.80;9.30;;;;;;;-144.99;nan;52374.72;4996884;28;20230;-72
2021/05/20 04:49:11;;;;;;;8.30;6.87;;;;;;;-144.99;nan;52346.19;5002328;28;20209;-72
2021/05/20 04:51:38;;;;;;;9.70;7.13;;;;;;;-144.99;nan;52362.50;4996295;28;20212;-71
2021/05/20 04:54:07;;;;;;;9.90;8.00;;;;;;;-144.99;nan;52321.72;4997806;28;20277;-71
2021/05/20 04:56:36;;;;;;;11.67;8.70;;;;;;;-144.99;nan;52356.38;5000550;28;20235;-73
2021/05/20 04:59:03;;;;;;;11.07;8.90;;;;;;;-144.99;nan;52380.84;5002014;28;20746;-73
2021/05/20 05:01:29;;;;;;;13.07;9.23;;;;;;;-144.99;nan;52374.72;4997855;28;20204;-75
2021/05/20 05:03:58;;;;;;;11.40;8.20;;;;;;;-144.99;nan;52366.56;4994220;28;20211;-72
2021/05/20 05:06:25;;;;;;;11.70;8.63;;;;;;;-144.99;nan;52336.00;4989953;28;20356;-73
2021/05/20 05:08:51;;;;;;;13.20;8.03;;;;;;;-144.99;nan;52342.09;4993648;28;20579;-72
2021/05/20 05:11:20;;;;;;;13.93;9.53;;;;;;;-144.99;nan;52358.41;4992545;28;20223;-72
2021/05/20 05:13:46;;;;;;;13.60;10.17;;;;;;;-144.99;nan;52372.69;4996901;28;20211;-74
2021/05/20 05:16:12;;;;;;;11.80;10.20;;;;;;;-144.99;nan;52338.03;4996923;28;20628;-69
2021/05/20 05:18:41;;;;;;;13.53;11.47;;;;;;;-144.99;nan;52354.34;4999199;28;21405;-69
2021/05/20 05:21:13;;;;;;;12.40;10.60;;;;;;;-144.99;nan;52386.94;4989812;28;20214;-69
2021/05/20 05:23:40;;;;;;;11.70;10.37;;;;;;;-144.99;nan;52350.25;4995878;28;20669;-69
2021/05/20 05:26:06;;;;;;;12.07;9.70;;;;;;;-144.99;nan;52354.34;4996413;28;20231;-68
2021/05/20 05:28:38;;;;;;;11.77;9.70;;;;;;;-144.99;nan;52342.09;3962844;28;10001067;-69
2021/05/20 05:31:05;;;;;;;15.50;9.80;;;;;;;-144.99;nan;52362.50;4990108;28;20208;-70
2021/05/20 05:33:37;;;;;;;13.00;11.03;;;;;;;-144.99;nan;52354.34;4992865;28;21073;-68
2021/05/20 05:36:03;;;;;;;10.67;8.43;;;;;;;-144.99;nan;52350.25;4990867;28;20200;-68
2021/05/20 05:38:32;;;;;;;13.53;9.70;;;;;;;-144.99;nan;52325.81;4997659;28;20228;-69
2021/05/20 05:40:59;;;;;;;12.87;9.77;;;;;;;-144.99;nan;52350.25;4997048;28;20207;-67
2021/05/20 05:43:25;;;;;;;11.07;9.70;;;;;;;-144.99;nan;52362.50;4994139;28;20207;-68
2021/05/20 05:45:51;;;;;;;14.00;9.97;;;;;;;-144.99;nan;52370.63;4991719;28;20224;-69
2021/05/20 05:48:20;;;;;;;11.13;9.53;;;;;;;-144.99;nan;52354.34;4995699;28;20229;-71
2021/05/20 05:50:51;;;;;;;11.50;9.50;;;;;;;-144.99;nan;52372.69;4993371;28;20212;-69
2021/05/20 05:53:18;;;;;;;11.17;9.20;;;;;;;-144.99;nan;52354.34;4987860;28;20280;-70
2021/05/20 05:55:44;;;;;;;12.73;10.00;;;;;;;-144.99;nan;52342.09;4996203;28;20253;-69
2021/05/20 05:58:11;;;;;;;11.87;10.50;;;;;;;-144.99;nan;52354.34;4994196;28;20232;-69
2021/05/20 06:00:43;;;;;;;10.87;8.67;;;;;;;-144.99;nan;52329.88;4994772;28;20208;-70
2021/05/20 06:03:09;;;;;;;11.00;9.33;;;;;;;-144.99;nan;52305.41;4992656;28;20237;-69
2021/05/20 06:05:40;;;;;;;10.13;7.17;;;;;;;-144.99;nan;52329.88;4995602;28;20671;-69
2021/05/20 06:08:06;;;;;;;11.00;8.23;;;;;;;-144.99;nan;52354.34;4990368;28;20250;-68
2021/05/20 06:10:36;;;;;;;16.90;9.57;;;;;;;-144.99;nan;52348.22;4996754;28;20609;-70
2021/05/20 06:13:05;;;;;;;14.53;9.03;;;;;;;-144.99;nan;52352.28;4997112;28;20212;-69
2021/05/20 06:15:33;;;;;;;9.93;8.23;;;;;;;-144.99;nan;52280.97;4997512;28;20214;-69
2021/05/20 06:17:59;;;;;;;12.40;10.37;;;;;;;-144.99;nan;52333.94;4994031;28;20236;-70
2021/05/20 06:20:25;;;;;;;12.73;10.67;;;;;;;-144.99;nan;52313.56;4993591;28;20210;-69
2021/05/20 06:22:51;;;;;;;11.87;8.87;;;;;;;-144.99;nan;52338.03;4990151;28;20211;-71
2021/05/20 06:25:20;;;;;;;11.50;9.20;;;;;;;-144.99;nan;52374.72;4995343;28;20253;-69
2021/05/20 06:27:46;;;;;;;14.47;9.27;;;;;;;-144.99;nan;52342.09;4989970;28;20273;-69
2021/05/20 06:30:13;;;;;;;11.40;10.17;;;;;;;-144.99;nan;52358.41;4993134;28;20210;-68
2021/05/20 06:32:43;;;;;;;9.53;7.97;;;;;;;-144.99;nan;52325.81;4993879;28;20202;-69
2021/05/20 06:35:13;;;;;;;7.77;7.00;;;;;;;-144.99;nan;52348.22;4989198;28;20715;-67
2021/05/20 06:37:39;;;;;;;16.03;8.00;;;;;;;-144.99;nan;52329.88;4994632;28;20239;-69
2021/05/20 06:40:07;;;;;;;11.53;9.30;;;;;;;-144.99;nan;52309.50;4996855;28;20237;-68
2021/05/20 06:42:33;;;;;;;14.07;10.10;;;;;;;-144.99;nan;52366.56;4988251;28;20281;-68
2021/05/20 06:45:02;;;;;;;9.97;8.67;;;;;;;-144.99;nan;52305.41;4987068;28;20670;-71
2021/05/20 06:47:28;;;;;;;8.90;7.50;;;;;;;-144.99;nan;52342.09;4992510;28;20234;-71
2021/05/20 06:49:58;;;;;;;13.87;9.67;;;;;;;-144.99;nan;52323.75;4987645;28;20746;-68
2021/05/20 06:52:24;;;;;;;7.40;6.67;;;;;;;-144.99;nan;52321.72;4990116;28;20289;-68
2021/05/20 06:54:50;;;;;;;12.60;7.57;;;;;;;-144.99;nan;52317.66;4990691;28;20211;-69
2021/05/20 06:57:23;;;;;;;7.87;6.93;;;;;;;-144.99;nan;52301.34;4994636;28;20417;-68
2021/05/20 06:59:58;;;;;;;10.57;7.20;;;;;;;-144.99;nan;52313.56;4994251;28;20234;-69
2021/05/20 07:02:25;;;;;;;7.47;5.53;;;;;;;-144.99;nan;52315.59;4991584;28;20732;-71
2021/05/20 07:04:54;;;;;;;10.63;6.93;;;;;;;-144.99;nan;52287.06;4987391;28;20220;-70
2021/05/20 07:07:25;;;;;;;10.00;6.90;;;;;;;-144.99;nan;52311.53;4991015;28;20322;-70
2021/05/20 07:09:52;;;;;;;12.83;5.97;;;;;;;-144.99;nan;52301.34;4988112;28;20203;-69
2021/05/20 07:12:19;;;;;;;10.03;5.43;;;;;;;-144.99;nan;52309.50;4998701;28;20559;-70
2021/05/20 07:14:47;;;;;;;8.17;4.43;;;;;;;-144.99;nan;52289.13;4991294;28;20207;-69
2021/05/20 07:17:13;;;;;;;6.23;4.57;;;;;;;-144.99;nan;52301.34;4993853;28;20238;-68
2021/05/20 07:19:43;;;;;;;6.20;4.40;;;;;;;-144.99;nan;52329.88;4989599;28;20571;-69
2021/05/20 07:22:14;;;;;;;7.07;4.93;;;;;;;-144.99;nan;52315.59;4989228;28;20673;-70
2021/05/20 07:24:45;;;;;;;6.13;5.03;;;;;;;-144.99;nan;52321.72;4990438;28;20219;-69
2021/05/20 07:27:13;;;;;;;6.87;4.87;;;;;;;-144.99;nan;52305.41;4991100;28;20241;-69
2021/05/20 07:29:45;;;;;;;13.90;5.23;;;;;;;-144.99;nan;52329.88;4992651;28;20211;-69
2021/05/20 07:32:18;;;;;;;8.73;5.17;;;;;;;-144.99;nan;52280.97;4993237;28;20221;-69
2021/05/20 07:34:45;;;;;;;5.87;4.33;;;;;;;-144.99;nan;52268.72;4991265;28;20635;-69
2021/05/20 07:37:16;;;;;;;7.57;4.67;;;;;;;-144.99;nan;52293.19;4995923;28;20269;-70
2021/05/20 07:39:50;;;;;;;12.47;4.93;;;;;;;-144.99;nan;52317.66;4989254;28;20254;-70
2021/05/20 07:42:19;;;;;;;8.80;6.93;;;;;;;-144.99;nan;52299.31;4992144;28;20657;-69
2021/05/20 07:44:46;;;;;;;6.13;4.50;;;;;;;-144.99;nan;52313.56;4991831;28;20923;-70
2021/05/20 07:47:15;;;;;;;7.63;5.03;;;;;;;-144.99;nan;52313.56;4987414;28;20894;-70
2021/05/20 07:49:41;;;;;;;5.70;3.97;;;;;;;-144.99;nan;52297.25;4990643;28;20229;-71
2021/05/20 07:52:07;;;;;;;4.77;3.90;;;;;;;-144.99;nan;52293.19;4993932;28;20844;-70
2021/05/20 07:54:34;;;;;;;4.87;3.33;;;;;;;-144.99;nan;52287.06;4988652;28;20219;-70
2021/05/20 07:57:04;;;;;;;4.40;3.13;;;;;;;-144.99;nan;52297.25;4991519;28;20228;-69
2021/05/20 07:59:33;;;;;;;4.47;2.90;;;;;;;-144.99;nan;52252.44;4989157;28;20323;-70
2021/05/20 08:02:07;;;;;;;5.13;3.33;;;;;;;-144.99;nan;52293.19;4991291;28;20696;-69
2021/05/20 08:04:34;;;;;;;4.47;3.30;;;;;;;-144.99;nan;52285.03;4991356;28;20638;-69
2021/05/20 08:07:06;;;;;;;4.33;3.07;;;;;;;-144.99;nan;52285.03;4990742;28;20264;-68
2021/05/20 08:09:34;;;;;;;5.50;2.90;;;;;;;-144.99;nan;52309.50;4988188;28;20511;-70
2021/05/20 08:12:01;;;;;;;4.17;3.17;;;;;;;-144.99;nan;52333.94;4990924;28;20780;-68
2021/05/20 08:14:30;;;;;;;4.70;2.87;;;;;;;-144.99;nan;52254.47;4990415;28;20206;-70
2021/05/20 08:16:59;;;;;;;5.63;4.00;;;;;;;-144.99;nan;52280.97;4991663;28;20322;-70
2021/05/20 08:19:25;;;;;;;6.57;3.00;;;;;;;-144.99;nan;52266.69;4990570;28;20240;-70
2021/05/20 08:21:52;;;;;;;4.40;3.10;;;;;;;-144.99;nan;52285.03;4992241;28;20212;-70
2021/05/20 08:24:20;;;;;;;5.90;4.07;;;;;;;-144.99;nan;52291.16;4990845;28;20663;-70
2021/05/20 08:26:47;;;;;;;4.40;3.07;;;;;;;-144.99;nan;52260.56;4991318;28;20650;-70
2021/05/20 08:29:19;;;;;;;5.27;2.90;;;;;;;-144.99;nan;52293.19;4990136;28;20234;-69
2021/05/20 08:31:51;;;;;;;5.47;3.00;;;;;;;-144.99;nan;52280.97;4990359;28;20208;-70
2021/05/20 08:34:17;;;;;;;4.20;3.20;;;;;;;-144.99;nan;52325.81;4991027;28;20215;-70
2021/05/20 08:36:52;;;;;;;5.03;4.33;;;;;;;-144.99;nan;52293.19;4990938;28;20641;-70
2021/05/20 08:39:18;;;;;;;7.07;3.27;;;;;;;-144.99;nan;52301.34;4990829;28;20227;-70
2021/05/20 08:41:45;;;;;;;6.13;3.80;;;;;;;-144.99;nan;52305.41;4990895;28;20700;-70
2021/05/20 08:44:17;;;;;;;7.30;3.60;;;;;;;-144.99;nan;52321.72;4990130;28;20207;-70
2021/05/20 08:46:44;;;;;;;7.83;3.50;;;;;;;-144.99;nan;52329.88;4990381;28;20231;-70
2021/05/20 08:49:14;;;;;;;6.77;4.50;;;;;;;-144.99;nan;52313.56;4986639;28;20300;-69
2021/05/20 08:51:41;;;;;;;6.87;5.03;;;;;;;-144.99;nan;52350.25;4990446;28;20209;-70
2021/05/20 08:54:07;;;;;;;6.13;4.20;;;;;;;-144.99;nan;52301.34;4989967;28;20216;-69
2021/05/20 08:56:33;;;;;;;4.93;3.40;;;;;;;-144.99;nan;52301.34;4990479;28;20232;-70
2021/05/20 08:59:02;;;;;;;6.00;3.47;;;;;;;-144.99;nan;52268.72;4990070;28;20228;-72
2021/05/20 09:01:33;;;;;;;4.67;3.83;;;;;;;-144.99;nan;52350.25;4991233;28;20914;-70
2021/05/20 09:04:01;;;;;;;6.57;3.70;;;;;;;-144.99;nan;52301.34;4990768;28;20243;-70
2021/05/20 09:06:35;;;;;;;4.97;3.53;;;;;;;-144.99;nan;52285.03;4991528;28;20276;-69
2021/05/20 09:09:06;;;;;;;5.57;4.40;;;;;;;-144.99;nan;52289.13;4988768;28;20199;-70
2021/05/20 09:11:35;;;;;;;4.37;3.33;;;;;;;-144.99;nan;52301.34;4989830;28;20210;-70
2021/05/20 09:14:06;;;;;;;4.47;4.07;;;;;;;-144.99;nan;52317.66;4990131;28;20297;-68
2021/05/20 09:16:38;;;;;;;5.03;3.43;;;;;;;-144.99;nan;52317.66;4990472;28;20309;-71
2021/05/20 09:19:21;;;;;;;5.20;3.23;;;;;;;-144.99;nan;52289.13;4990368;28;20308;-70
2021/05/20 09:22:05;;;;;;;5.10;4.17;;;;;;;-144.99;nan;52289.13;4990562;28;20276;-70
2021/05/20 09:24:45;;;;;;;7.43;4.53;;;;;;;-144.99;nan;52272.81;4990039;28;20697;-69
2021/05/20 09:27:25;;;;;;;6.10;4.03;;;;;;;-144.99;nan;52256.50;4990583;28;20248;-69
2021/05/20 09:30:17;;;;;;;5.17;3.77;;;;;;;-144.99;nan;52315.59;4985649;28;20217;-68
2021/05/20 09:32:46;;;;;;;6.10;4.03;;;;;;;-144.99;nan;52283.00;4989452;28;20253;-69
2021/05/20 09:35:14;;;;;;;5.80;4.13;;;;;;;-144.99;nan;52256.50;4985543;28;20941;-70
2021/05/20 09:37:55;;;;;;;5.87;3.67;;;;;;;-144.99;nan;52301.34;4989317;28;20262;-69
2021/05/20 09:40:27;;;;;;;6.33;4.03;;;;;;;-144.99;nan;52246.31;4989764;28;20234;-70
2021/05/20 09:42:54;;;;;;;4.87;3.60;;;;;;;-144.99;nan;52268.72;4985910;28;20231;-71
2021/05/20 09:45:26;;;;;;;6.13;3.90;;;;;;;-144.99;nan;52293.19;4989900;28;20215;-71
2021/05/20 09:48:03;;;;;;;8.27;4.07;;;;;;;-144.99;nan;52329.88;4987041;28;20779;-70
2021/05/20 09:50:31;;;;;;;9.73;5.77;;;;;;;-144.99;nan;52289.13;4989514;28;20203;-70
2021/05/20 09:53:01;;;;;;;5.50;3.97;;;;;;;-144.99;nan;52285.03;4989259;28;20207;-69
2021/05/20 09:55:28;;;;;;;5.37;4.33;;;;;;;-144.99;nan;52313.56;4990102;28;20214;-70
2021/05/20 09:57:59;;;;;;;6.07;4.60;;;;;;;-144.99;nan;52321.72;4989540;28;20282;-69
2021/05/20 10:00:32;;;;;;;6.70;4.77;;;;;;;-144.99;nan;52289.13;4989813;28;20327;-70
2021/05/20 10:03:04;;;;;;;5.83;5.13;;;;;;;-144.99;nan;52301.34;4989941;28;20253;-69
2021/05/20 10:05:33;;;;;;;6.33;5.27;;;;;;;-144.99;nan;52260.56;4990240;28;20716;-69
2021/05/20 10:08:01;;;;;;;6.60;4.77;;;;;;;-144.99;nan;52317.66;4990060;28;20285;-69
2021/05/20 10:10:27;;;;;;;6.67;4.57;;;;;;;-144.99;nan;52285.03;4993475;28;20203;-69
2021/05/20 10:12:54;;;;;;;7.13;4.13;;;;;;;-144.99;nan;52252.44;4992423;28;20712;-70
2021/05/20 10:15:24;;;;;;;8.37;4.20;;;;;;;-144.99;nan;52248.34;4994920;28;20233;-70
2021/05/20 10:17:53;;;;;;;4.87;4.13;;;;;;;-144.99;nan;52264.66;4990410;28;20598;-70
2021/05/20 10:20:21;;;;;;;5.80;3.77;;;;;;;-144.99;nan;52268.72;4996961;28;20449;-70
2021/05/20 10:22:51;;;;;;;9.33;4.00;;;;;;;-144.99;nan;52309.50;4995696;28;20215;-69
2021/05/20 10:25:18;;;;;;;9.83;4.93;;;;;;;-144.99;nan;52301.34;4991765;28;20212;-70
2021/05/20 10:27:50;;;;;;;5.53;4.37;;;;;;;-144.99;nan;52317.66;5000396;28;20438;-69
2021/05/20 10:30:21;;;;;;;5.30;4.13;;;;;;;-144.99;nan;52338.03;4995009;28;20691;-72
2021/05/20 10:32:58;;;;;;;5.90;3.83;;;;;;;-144.99;nan;52285.03;5003245;28;20218;-70
2021/05/20 10:35:39;;;;;;;8.27;4.57;;;;;;;-144.99;nan;52344.16;4992323;28;20652;-70
2021/05/20 10:38:06;;;;;;;7.90;4.17;;;;;;;-144.99;nan;52346.19;4993871;28;20763;-70
2021/05/20 10:40:36;;;;;;;5.73;3.33;;;;;;;-144.99;nan;52323.75;4998281;28;20236;-71
2021/05/20 10:43:16;;;;;;;6.50;4.67;;;;;;;-144.99;nan;52317.66;5001148;28;20366;-73
2021/05/20 10:45:57;;;;;;;5.87;4.63;;;;;;;-144.99;nan;52346.19;4996810;28;20245;-71
2021/05/20 10:48:27;;;;;;;9.57;5.07;;;;;;;-144.99;nan;52280.97;4984885;28;20258;-70
2021/05/20 10:51:16;;;;;;;4.43;3.13;;;;;;;-144.99;nan;52333.94;4993114;28;20634;-70
2021/05/20 10:53:48;;;;;;;5.77;3.47;;;;;;;-144.99;nan;52256.50;4993409;28;20223;-69
2021/05/20 10:56:48;;;;;;;6.77;4.03;;;;;;;-144.99;nan;52191.28;4984404;28;20237;-69
2021/05/20 10:59:44;;;;;;;3.80;2.20;;;;;;;-144.99;nan;52238.16;4986957;28;20230;-71
2021/05/20 11:02:42;;;;;;;6.90;3.70;;;;;;;-144.99;nan;52179.06;4983961;28;20269;-69
2021/05/20 11:05:55;;;;;;;8.47;2.77;;;;;;;-144.99;nan;52156.63;4985924;28;20265;-69
2021/05/20 11:09:00;;;;;;;5.73;3.80;;;;;;;-144.99;nan;52111.78;4990590;28;20231;-70
2021/05/20 11:14:38;;;;;;;4.63;2.87;;;;;;;-144.99;50.27;52264.66;5131137;27;21147;-68
2021/05/20 11:17:44;;;;;;;5.57;3.43;;;;;;;-144.99;51.54;52270.78;5132938;28;20306;-72
2021/05/20 11:20:46;;;;;;;3.60;2.50;;;;;;;-144.99;53.49;52262.63;5122400;28;20211;-70
2021/05/20 11:23:39;;;;;;;5.40;3.40;;;;;;;-144.99;53.92;52254.47;5128012;28;20209;-69
2021/05/20 11:26:23;;;;;;;4.30;2.77;;;;;;;-144.99;54.30;52187.19;5123712;28;20211;-72
2021/05/20 11:29:01;;;;;;;3.50;2.90;;;;;;;-144.99;54.03;52191.28;5125614;28;20194;-70
2021/05/20 11:31:29;;;;;;;4.07;2.80;;;;;;;-144.99;51.85;52146.44;5124909;28;20599;-69
2021/05/20 11:34:35;;;;;;;4.07;2.77;;;;;;;-144.99;50.23;52170.91;5137876;27;20219;-72
2021/05/20 11:37:01;;;;;;;3.47;2.70;;;;;;;-144.99;51.03;52215.75;5119465;28;20279;-70
2021/05/20 11:39:27;;;;;;;4.97;2.87;;;;;;;-144.99;51.39;52252.44;5124314;27;20230;-72
2021/05/20 11:41:59;;;;;;;6.27;3.07;;;;;;;-144.99;51.79;52219.81;5133413;27;20191;-69
2021/05/20 11:44:31;;;;;;;4.10;2.83;;;;;;;-144.99;51.83;52252.44;5118427;28;20235;-71
2021/05/20 11:47:12;;;;;;;7.73;3.10;;;;;;;-144.99;51.62;52270.78;5129416;27;20258;-70